sensor_id;sensor_type;location;lat;lon;timestamp;temperature;humidity
20839;DHT22;10580;51.092;6.828;2022-11-13T00:01:27;8.80;99.90
20839;DHT22;10580;51.092;6.828;2022-11-13T00:03:52;8.80;99.90
20839;DHT22;10580;51.092;6.828;2022-11-13T00:06:19;8.80;99.90
20839;DHT22;10580;51.092;6.828;2022-11-13T00:08:45;8.80;99.90
20839;DHT22;10580;51.092;6.828;2022-11-13T00:11:16;8.70;99.90
20839;DHT22;10580;51.092;6.828;2022-11-13T00:13:43;8.60;99.90
20839;DHT22;10580;51.092;6.828;2022-11-13T00:16:11;8.60;99.90
20839;DHT22;10580;51.092;6.828;2022-11-13T00:18:37;8.60;99.90
20839;DHT22;10580;51.092;6.828;2022-11-13T00:21:04;8.60;99.90
20839;DHT22;10580;51.092;6.828;2022-11-13T00:23:32;8.50;99.90
20839;DHT22;10580;51.092;6.828;2022-11-13T00:26:08;8.50;99.90
20839;DHT22;10580;51.092;6.828;2022-11-13T00:28:34;8.50;99.90
20839;DHT22;10580;51.092;6.828;2022-11-13T00:31:01;8.50;99.90
20839;DHT22;10580;51.092;6.828;2022-11-13T00:33:27;8.50;99.90
20839;DHT22;10580;51.092;6.828;2022-11-13T00:35:53;8.50;99.90
20839;DHT22;10580;51.092;6.828;2022-11-13T00:38:19;8.50;99.90
20839;DHT22;10580;51.092;6.828;2022-11-13T00:40:44;8.40;99.90
20839;DHT22;10580;51.092;6.828;2022-11-13T00:43:10;8.50;99.90
20839;DHT22;10580;51.092;6.828;2022-11-13T00:45:35;8.50;99.90
20839;DHT22;10580;51.092;6.828;2022-11-13T00:48:01;8.50;99.90
20839;DHT22;10580;51.092;6.828;2022-11-13T00:50:27;8.50;99.90
20839;DHT22;10580;51.092;6.828;2022-11-13T00:52:52;8.60;99.90
20839;DHT22;10580;51.092;6.828;2022-11-13T00:55:18;8.50;99.90
20839;DHT22;10580;51.092;6.828;2022-11-13T00:57:43;8.60;99.90
20839;DHT22;10580;51.092;6.828;2022-11-13T01:00:09;8.60;99.90
20839;DHT22;10580;51.092;6.828;2022-11-13T01:02:35;8.60;99.90
20839;DHT22;10580;51.092;6.828;2022-11-13T01:05:01;8.60;99.90
20839;DHT22;10580;51.092;6.828;2022-11-13T01:07:26;8.60;99.90
20839;DHT22;10580;51.092;6.828;2022-11-13T01:09:52;8.60;99.90
20839;DHT22;10580;51.092;6.828;2022-11-13T01:12:18;8.60;99.90
20839;DHT22;10580;51.092;6.828;2022-11-13T01:14:43;8.60;99.90
20839;DHT22;10580;51.092;6.828;2022-11-13T01:17:09;8.60;99.90
20839;DHT22;10580;51.092;6.828;2022-11-13T01:19:34;8.60;99.90
20839;DHT22;10580;51.092;6.828;2022-11-13T01:22:00;8.60;99.90
20839;DHT22;10580;51.092;6.828;2022-11-13T01:24:25;8.60;99.90
20839;DHT22;10580;51.092;6.828;2022-11-13T01:26:51;8.60;99.90
20839;DHT22;10580;51.092;6.828;2022-11-13T01:29:16;8.60;99.90
20839;DHT22;10580;51.092;6.828;2022-11-13T01:31:42;8.60;99.90
20839;DHT22;10580;51.092;6.828;2022-11-13T01:34:07;8.50;99.90
20839;DHT22;10580;51.092;6.828;2022-11-13T01:36:33;8.50;99.90
20839;DHT22;10580;51.092;6.828;2022-11-13T01:38:59;8.50;99.90
20839;DHT22;10580;51.092;6.828;2022-11-13T01:41:26;8.60;99.90
20839;DHT22;10580;51.092;6.828;2022-11-13T01:43:53;8.60;99.90
20839;DHT22;10580;51.092;6.828;2022-11-13T01:46:30;8.50;99.90
20839;DHT22;10580;51.092;6.828;2022-11-13T01:49:30;8.60;99.90
20839;DHT22;10580;51.092;6.828;2022-11-13T01:52:00;8.60;99.90
20839;DHT22;10580;51.092;6.828;2022-11-13T01:54:29;8.60;99.90
20839;DHT22;10580;51.092;6.828;2022-11-13T01:56:56;8.60;99.90
20839;DHT22;10580;51.092;6.828;2022-11-13T01:59:28;8.60;99.90
20839;DHT22;10580;51.092;6.828;2022-11-13T02:01:55;8.60;99.90
20839;DHT22;10580;51.092;6.828;2022-11-13T02:04:22;8.50;99.90
20839;DHT22;10580;51.092;6.828;2022-11-13T02:09:17;8.50;99.90
20839;DHT22;10580;51.092;6.828;2022-11-13T02:11:44;8.50;99.90
20839;DHT22;10580;51.092;6.828;2022-11-13T02:14:12;8.50;99.90
20839;DHT22;10580;51.092;6.828;2022-11-13T02:16:39;8.50;99.90
20839;DHT22;10580;51.092;6.828;2022-11-13T02:19:11;8.40;99.90
20839;DHT22;10580;51.092;6.828;2022-11-13T02:21:49;8.50;99.90
20839;DHT22;10580;51.092;6.828;2022-11-13T02:24:32;8.50;99.90
20839;DHT22;10580;51.092;6.828;2022-11-13T02:27:03;8.50;99.90
20839;DHT22;10580;51.092;6.828;2022-11-13T02:29:29;8.50;99.90
20839;DHT22;10580;51.092;6.828;2022-11-13T02:31:55;8.50;99.90
20839;DHT22;10580;51.092;6.828;2022-11-13T02:34:21;8.50;99.90
20839;DHT22;10580;51.092;6.828;2022-11-13T02:36:46;8.50;99.90
20839;DHT22;10580;51.092;6.828;2022-11-13T02:39:13;8.50;99.90
20839;DHT22;10580;51.092;6.828;2022-11-13T02:41:38;8.50;99.90
20839;DHT22;10580;51.092;6.828;2022-11-13T02:44:07;8.50;99.90
20839;DHT22;10580;51.092;6.828;2022-11-13T02:46:33;8.50;99.90
20839;DHT22;10580;51.092;6.828;2022-11-13T02:48:59;8.50;99.90
20839;DHT22;10580;51.092;6.828;2022-11-13T02:51:25;8.40;99.90
20839;DHT22;10580;51.092;6.828;2022-11-13T02:53:50;8.30;99.90
20839;DHT22;10580;51.092;6.828;2022-11-13T02:56:16;8.30;99.90
20839;DHT22;10580;51.092;6.828;2022-11-13T02:58:42;8.20;99.90
20839;DHT22;10580;51.092;6.828;2022-11-13T03:01:08;8.10;99.90
20839;DHT22;10580;51.092;6.828;2022-11-13T03:03:33;8.10;99.90
20839;DHT22;10580;51.092;6.828;2022-11-13T03:05:59;8.00;99.90
20839;DHT22;10580;51.092;6.828;2022-11-13T03:08:25;7.90;99.90
20839;DHT22;10580;51.092;6.828;2022-11-13T03:10:52;7.90;99.90
20839;DHT22;10580;51.092;6.828;2022-11-13T03:13:18;7.80;99.90
20839;DHT22;10580;51.092;6.828;2022-11-13T03:15:44;7.80;99.90
20839;DHT22;10580;51.092;6.828;2022-11-13T03:18:09;7.80;99.90
20839;DHT22;10580;51.092;6.828;2022-11-13T03:20:40;7.80;99.90
20839;DHT22;10580;51.092;6.828;2022-11-13T03:23:06;7.80;99.90
20839;DHT22;10580;51.092;6.828;2022-11-13T03:25:33;7.70;99.90
20839;DHT22;10580;51.092;6.828;2022-11-13T03:27:59;7.70;99.90
20839;DHT22;10580;51.092;6.828;2022-11-13T03:30:25;7.70;99.90
20839;DHT22;10580;51.092;6.828;2022-11-13T03:32:54;7.60;99.90
20839;DHT22;10580;51.092;6.828;2022-11-13T03:35:21;7.60;99.90
20839;DHT22;10580;51.092;6.828;2022-11-13T03:37:47;7.60;99.90
20839;DHT22;10580;51.092;6.828;2022-11-13T03:40:12;7.60;99.90
20839;DHT22;10580;51.092;6.828;2022-11-13T03:42:38;7.50;99.90
20839;DHT22;10580;51.092;6.828;2022-11-13T03:45:04;7.50;99.90
20839;DHT22;10580;51.092;6.828;2022-11-13T03:47:29;7.40;99.90
20839;DHT22;10580;51.092;6.828;2022-11-13T03:49:55;7.40;99.90
20839;DHT22;10580;51.092;6.828;2022-11-13T03:52:20;7.40;99.90
20839;DHT22;10580;51.092;6.828;2022-11-13T03:54:49;7.30;99.90
20839;DHT22;10580;51.092;6.828;2022-11-13T03:57:15;7.20;99.90
20839;DHT22;10580;51.092;6.828;2022-11-13T03:59:40;7.10;99.90
20839;DHT22;10580;51.092;6.828;2022-11-13T04:02:06;7.10;99.90
20839;DHT22;10580;51.092;6.828;2022-11-13T04:04:31;7.10;99.90
20839;DHT22;10580;51.092;6.828;2022-11-13T04:06:57;7.10;99.90
20839;DHT22;10580;51.092;6.828;2022-11-13T04:09:22;7.00;99.90
20839;DHT22;10580;51.092;6.828;2022-11-13T04:11:48;7.00;99.90
20839;DHT22;10580;51.092;6.828;2022-11-13T04:14:13;6.90;99.90
20839;DHT22;10580;51.092;6.828;2022-11-13T04:16:39;7.00;99.90
20839;DHT22;10580;51.092;6.828;2022-11-13T04:19:05;6.90;99.90
20839;DHT22;10580;51.092;6.828;2022-11-13T04:21:30;6.80;99.90
20839;DHT22;10580;51.092;6.828;2022-11-13T04:23:56;6.80;99.90
20839;DHT22;10580;51.092;6.828;2022-11-13T04:26:21;6.80;99.90
20839;DHT22;10580;51.092;6.828;2022-11-13T04:28:47;6.80;99.90
20839;DHT22;10580;51.092;6.828;2022-11-13T04:31:12;6.80;99.90
20839;DHT22;10580;51.092;6.828;2022-11-13T04:33:38;6.80;99.90
20839;DHT22;10580;51.092;6.828;2022-11-13T04:36:04;6.80;99.90
20839;DHT22;10580;51.092;6.828;2022-11-13T04:38:29;6.80;99.90
20839;DHT22;10580;51.092;6.828;2022-11-13T04:40:55;6.80;99.90
20839;DHT22;10580;51.092;6.828;2022-11-13T04:43:39;6.70;99.90
20839;DHT22;10580;51.092;6.828;2022-11-13T04:46:05;6.70;99.90
20839;DHT22;10580;51.092;6.828;2022-11-13T04:48:30;6.70;99.90
20839;DHT22;10580;51.092;6.828;2022-11-13T04:50:56;6.70;99.90
20839;DHT22;10580;51.092;6.828;2022-11-13T04:53:21;6.70;99.90
20839;DHT22;10580;51.092;6.828;2022-11-13T04:55:47;6.70;99.90
20839;DHT22;10580;51.092;6.828;2022-11-13T04:58:12;6.70;99.90
20839;DHT22;10580;51.092;6.828;2022-11-13T05:00:38;6.70;99.90
20839;DHT22;10580;51.092;6.828;2022-11-13T05:03:03;6.70;99.90
20839;DHT22;10580;51.092;6.828;2022-11-13T05:05:29;6.60;99.90
20839;DHT22;10580;51.092;6.828;2022-11-13T05:07:54;6.60;99.90
20839;DHT22;10580;51.092;6.828;2022-11-13T05:10:20;6.60;99.90
20839;DHT22;10580;51.092;6.828;2022-11-13T05:12:46;6.70;99.90
20839;DHT22;10580;51.092;6.828;2022-11-13T05:15:11;6.60;99.90
20839;DHT22;10580;51.092;6.828;2022-11-13T05:17:37;6.60;99.90
20839;DHT22;10580;51.092;6.828;2022-11-13T05:20:03;6.60;99.90
20839;DHT22;10580;51.092;6.828;2022-11-13T05:22:29;6.50;99.90
20839;DHT22;10580;51.092;6.828;2022-11-13T05:24:55;6.50;99.90
20839;DHT22;10580;51.092;6.828;2022-11-13T05:27:20;6.40;99.90
20839;DHT22;10580;51.092;6.828;2022-11-13T05:29:46;6.40;99.90
20839;DHT22;10580;51.092;6.828;2022-11-13T05:32:11;6.30;99.90
20839;DHT22;10580;51.092;6.828;2022-11-13T05:34:37;6.30;99.90
20839;DHT22;10580;51.092;6.828;2022-11-13T05:37:02;6.20;99.90
20839;DHT22;10580;51.092;6.828;2022-11-13T05:39:28;6.20;99.90
20839;DHT22;10580;51.092;6.828;2022-11-13T05:41:53;6.10;99.90
20839;DHT22;10580;51.092;6.828;2022-11-13T05:44:19;6.10;99.90
20839;DHT22;10580;51.092;6.828;2022-11-13T05:46:44;6.10;99.90
20839;DHT22;10580;51.092;6.828;2022-11-13T05:49:10;6.00;99.90
20839;DHT22;10580;51.092;6.828;2022-11-13T05:51:35;6.00;99.90
20839;DHT22;10580;51.092;6.828;2022-11-13T05:54:01;6.00;99.90
20839;DHT22;10580;51.092;6.828;2022-11-13T05:56:33;6.00;99.90
20839;DHT22;10580;51.092;6.828;2022-11-13T05:59:00;6.00;99.90
20839;DHT22;10580;51.092;6.828;2022-11-13T06:01:31;6.00;99.90
20839;DHT22;10580;51.092;6.828;2022-11-13T06:03:58;5.90;99.90
20839;DHT22;10580;51.092;6.828;2022-11-13T06:06:25;5.90;99.90
20839;DHT22;10580;51.092;6.828;2022-11-13T06:08:52;5.80;99.90
20839;DHT22;10580;51.092;6.828;2022-11-13T06:11:22;5.80;99.90
20839;DHT22;10580;51.092;6.828;2022-11-13T06:13:48;5.70;99.90
20839;DHT22;10580;51.092;6.828;2022-11-13T06:16:16;5.70;99.90
20839;DHT22;10580;51.092;6.828;2022-11-13T06:18:44;5.70;99.90
20839;DHT22;10580;51.092;6.828;2022-11-13T06:21:19;5.70;99.90
20839;DHT22;10580;51.092;6.828;2022-11-13T06:23:45;5.60;99.90
20839;DHT22;10580;51.092;6.828;2022-11-13T06:26:15;5.60;99.90
20839;DHT22;10580;51.092;6.828;2022-11-13T06:28:41;5.60;99.90
20839;DHT22;10580;51.092;6.828;2022-11-13T06:31:20;5.50;99.90
20839;DHT22;10580;51.092;6.828;2022-11-13T06:33:46;5.50;99.90
20839;DHT22;10580;51.092;6.828;2022-11-13T06:36:18;5.40;99.90
20839;DHT22;10580;51.092;6.828;2022-11-13T06:38:44;5.50;99.90
20839;DHT22;10580;51.092;6.828;2022-11-13T06:41:12;5.40;99.90
20839;DHT22;10580;51.092;6.828;2022-11-13T06:43:38;5.40;99.90
20839;DHT22;10580;51.092;6.828;2022-11-13T06:46:10;5.40;99.90
20839;DHT22;10580;51.092;6.828;2022-11-13T06:48:36;5.30;99.90
20839;DHT22;10580;51.092;6.828;2022-11-13T06:51:03;5.40;99.90
20839;DHT22;10580;51.092;6.828;2022-11-13T06:53:29;5.40;99.90
20839;DHT22;10580;51.092;6.828;2022-11-13T06:55:55;5.40;99.90
20839;DHT22;10580;51.092;6.828;2022-11-13T06:58:21;5.40;99.90
20839;DHT22;10580;51.092;6.828;2022-11-13T07:00:46;5.40;99.90
20839;DHT22;10580;51.092;6.828;2022-11-13T07:03:20;5.40;99.90
20839;DHT22;10580;51.092;6.828;2022-11-13T07:05:45;5.40;99.90
20839;DHT22;10580;51.092;6.828;2022-11-13T07:08:12;5.40;99.90
20839;DHT22;10580;51.092;6.828;2022-11-13T07:10:38;5.50;99.90
20839;DHT22;10580;51.092;6.828;2022-11-13T07:13:03;5.50;99.90
20839;DHT22;10580;51.092;6.828;2022-11-13T07:15:35;5.50;99.90
20839;DHT22;10580;51.092;6.828;2022-11-13T07:18:02;5.50;99.90
20839;DHT22;10580;51.092;6.828;2022-11-13T07:20:28;5.60;99.90
20839;DHT22;10580;51.092;6.828;2022-11-13T07:22:56;5.60;99.90
20839;DHT22;10580;51.092;6.828;2022-11-13T07:25:21;5.60;99.90
20839;DHT22;10580;51.092;6.828;2022-11-13T07:27:47;5.70;99.90
20839;DHT22;10580;51.092;6.828;2022-11-13T07:30:13;5.70;99.90
20839;DHT22;10580;51.092;6.828;2022-11-13T07:32:38;5.80;99.90
20839;DHT22;10580;51.092;6.828;2022-11-13T07:35:04;5.80;99.90
20839;DHT22;10580;51.092;6.828;2022-11-13T07:37:30;5.90;99.90
20839;DHT22;10580;51.092;6.828;2022-11-13T07:39:55;6.00;99.90
20839;DHT22;10580;51.092;6.828;2022-11-13T07:42:21;6.10;99.90
20839;DHT22;10580;51.092;6.828;2022-11-13T07:44:46;6.10;99.90
20839;DHT22;10580;51.092;6.828;2022-11-13T07:47:12;6.10;99.90
20839;DHT22;10580;51.092;6.828;2022-11-13T07:49:37;6.20;99.90
20839;DHT22;10580;51.092;6.828;2022-11-13T07:52:03;6.20;99.90
20839;DHT22;10580;51.092;6.828;2022-11-13T07:54:29;6.30;99.90
20839;DHT22;10580;51.092;6.828;2022-11-13T07:56:54;6.40;99.90
20839;DHT22;10580;51.092;6.828;2022-11-13T07:59:20;6.50;99.90
20839;DHT22;10580;51.092;6.828;2022-11-13T08:01:45;6.60;99.90
20839;DHT22;10580;51.092;6.828;2022-11-13T08:04:11;6.70;99.90
20839;DHT22;10580;51.092;6.828;2022-11-13T08:06:37;7.00;99.90
20839;DHT22;10580;51.092;6.828;2022-11-13T08:09:03;7.50;99.90
20839;DHT22;10580;51.092;6.828;2022-11-13T08:11:29;8.30;99.90
20839;DHT22;10580;51.092;6.828;2022-11-13T08:13:54;8.90;99.90
20839;DHT22;10580;51.092;6.828;2022-11-13T08:16:20;9.10;99.90
20839;DHT22;10580;51.092;6.828;2022-11-13T08:18:48;9.10;94.80
20839;DHT22;10580;51.092;6.828;2022-11-13T08:21:13;9.80;73.10
20839;DHT22;10580;51.092;6.828;2022-11-13T08:23:40;10.70;99.90
20839;DHT22;10580;51.092;6.828;2022-11-13T08:26:06;11.80;1.00
20839;DHT22;10580;51.092;6.828;2022-11-13T08:28:33;12.90;1.00
20839;DHT22;10580;51.092;6.828;2022-11-13T08:30:59;13.80;1.00
20839;DHT22;10580;51.092;6.828;2022-11-13T08:33:24;14.40;99.90
20839;DHT22;10580;51.092;6.828;2022-11-13T08:35:54;15.20;1.00
20839;DHT22;10580;51.092;6.828;2022-11-13T08:38:20;16.10;99.90
20839;DHT22;10580;51.092;6.828;2022-11-13T08:40:47;16.40;99.90
20839;DHT22;10580;51.092;6.828;2022-11-13T08:43:12;16.60;99.90
20839;DHT22;10580;51.092;6.828;2022-11-13T08:45:38;16.50;99.90
20839;DHT22;10580;51.092;6.828;2022-11-13T08:48:04;16.10;99.90
20839;DHT22;10580;51.092;6.828;2022-11-13T08:50:31;15.60;99.90
20839;DHT22;10580;51.092;6.828;2022-11-13T08:52:58;15.30;99.90
20839;DHT22;10580;51.092;6.828;2022-11-13T08:55:24;15.70;99.90
20839;DHT22;10580;51.092;6.828;2022-11-13T08:57:50;15.90;99.90
20839;DHT22;10580;51.092;6.828;2022-11-13T09:00:17;15.70;99.90
20839;DHT22;10580;51.092;6.828;2022-11-13T09:02:43;15.40;99.90
20839;DHT22;10580;51.092;6.828;2022-11-13T09:05:08;15.30;99.90
20839;DHT22;10580;51.092;6.828;2022-11-13T09:07:34;16.20;1.00
20839;DHT22;10580;51.092;6.828;2022-11-13T09:10:00;17.00;99.90
20839;DHT22;10580;51.092;6.828;2022-11-13T09:12:25;17.80;99.90
20839;DHT22;10580;51.092;6.828;2022-11-13T09:14:51;18.30;99.90
20839;DHT22;10580;51.092;6.828;2022-11-13T09:17:17;18.70;99.90
20839;DHT22;10580;51.092;6.828;2022-11-13T09:19:42;18.80;99.90
20839;DHT22;10580;51.092;6.828;2022-11-13T09:22:09;18.90;99.90
20839;DHT22;10580;51.092;6.828;2022-11-13T09:24:34;19.10;99.90
20839;DHT22;10580;51.092;6.828;2022-11-13T09:27:00;19.70;99.90
20839;DHT22;10580;51.092;6.828;2022-11-13T09:29:26;20.30;98.60
20839;DHT22;10580;51.092;6.828;2022-11-13T09:31:53;20.60;98.80
20839;DHT22;10580;51.092;6.828;2022-11-13T09:34:19;20.80;96.70
20839;DHT22;10580;51.092;6.828;2022-11-13T09:36:45;20.70;96.30
20839;DHT22;10580;51.092;6.828;2022-11-13T09:39:11;20.30;96.50
20839;DHT22;10580;51.092;6.828;2022-11-13T09:41:40;19.10;96.10
20839;DHT22;10580;51.092;6.828;2022-11-13T09:44:17;17.80;97.70
20839;DHT22;10580;51.092;6.828;2022-11-13T09:46:54;16.70;99.90
20839;DHT22;10580;51.092;6.828;2022-11-13T09:49:34;16.30;99.90
20839;DHT22;10580;51.092;6.828;2022-11-13T09:52:04;16.00;1.00
20839;DHT22;10580;51.092;6.828;2022-11-13T09:54:34;15.80;99.90
20839;DHT22;10580;51.092;6.828;2022-11-13T10:05:17;16.00;99.90
20839;DHT22;10580;51.092;6.828;2022-11-13T10:13:37;15.40;1.00
20839;DHT22;10580;51.092;6.828;2022-11-13T10:16:29;15.20;99.90
20839;DHT22;10580;51.092;6.828;2022-11-13T10:21:56;14.70;1.00
20839;DHT22;10580;51.092;6.828;2022-11-13T10:24:28;14.40;1.00
20839;DHT22;10580;51.092;6.828;2022-11-13T10:26:57;14.70;99.90
20839;DHT22;10580;51.092;6.828;2022-11-13T10:29:26;14.90;99.90
20839;DHT22;10580;51.092;6.828;2022-11-13T10:31:52;14.80;1.00
20839;DHT22;10580;51.092;6.828;2022-11-13T10:34:19;14.70;1.00
20839;DHT22;10580;51.092;6.828;2022-11-13T10:37:11;14.50;1.00
20839;DHT22;10580;51.092;6.828;2022-11-13T10:39:44;14.20;1.00
20839;DHT22;10580;51.092;6.828;2022-11-13T10:42:34;14.00;1.00
20839;DHT22;10580;51.092;6.828;2022-11-13T10:45:01;13.80;1.00
20839;DHT22;10580;51.092;6.828;2022-11-13T10:47:30;13.70;99.90
20839;DHT22;10580;51.092;6.828;2022-11-13T10:50:07;13.60;1.00
20839;DHT22;10580;51.092;6.828;2022-11-13T10:52:33;13.60;1.00
20839;DHT22;10580;51.092;6.828;2022-11-13T10:57:58;13.50;1.00
20839;DHT22;10580;51.092;6.828;2022-11-13T11:00:25;13.50;1.00
20839;DHT22;10580;51.092;6.828;2022-11-13T11:02:51;13.60;1.00
20839;DHT22;10580;51.092;6.828;2022-11-13T11:05:18;13.60;1.00
20839;DHT22;10580;51.092;6.828;2022-11-13T11:07:45;13.70;99.90
20839;DHT22;10580;51.092;6.828;2022-11-13T11:12:56;13.60;99.90
20839;DHT22;10580;51.092;6.828;2022-11-13T11:15:28;13.60;99.90
20839;DHT22;10580;51.092;6.828;2022-11-13T11:18:01;13.60;99.90
20839;DHT22;10580;51.092;6.828;2022-11-13T11:23:35;13.70;99.90
20839;DHT22;10580;51.092;6.828;2022-11-13T11:26:27;13.70;99.90
20839;DHT22;10580;51.092;6.828;2022-11-13T11:29:12;13.70;99.90
20839;DHT22;10580;51.092;6.828;2022-11-13T11:31:47;13.80;99.90
20839;DHT22;10580;51.092;6.828;2022-11-13T11:34:39;13.90;99.90
20839;DHT22;10580;51.092;6.828;2022-11-13T11:37:27;14.00;1.00
20839;DHT22;10580;51.092;6.828;2022-11-13T11:40:16;14.10;1.00
20839;DHT22;10580;51.092;6.828;2022-11-13T11:42:49;14.50;8.80
20839;DHT22;10580;51.092;6.828;2022-11-13T11:47:57;16.30;1.00
20839;DHT22;10580;51.092;6.828;2022-11-13T11:50:43;16.80;99.90
20839;DHT22;10580;51.092;6.828;2022-11-13T11:53:39;17.60;99.90
20839;DHT22;10580;51.092;6.828;2022-11-13T11:56:27;17.70;99.90
20839;DHT22;10580;51.092;6.828;2022-11-13T11:59:11;17.30;99.90
20839;DHT22;10580;51.092;6.828;2022-11-13T12:16:04;17.10;99.90
20839;DHT22;10580;51.092;6.828;2022-11-13T12:18:36;16.70;99.90
20839;DHT22;10580;51.092;6.828;2022-11-13T12:21:11;16.40;99.90
20839;DHT22;10580;51.092;6.828;2022-11-13T12:24:04;16.30;99.90
20839;DHT22;10580;51.092;6.828;2022-11-13T12:30:14;16.10;99.90
20839;DHT22;10580;51.092;6.828;2022-11-13T12:40:58;16.70;99.90
20839;DHT22;10580;51.092;6.828;2022-11-13T12:44:43;17.00;99.90
20839;DHT22;10580;51.092;6.828;2022-11-13T12:46:38;16.80;99.90
20839;DHT22;10580;51.092;6.828;2022-11-13T12:49:25;16.30;99.90
20839;DHT22;10580;51.092;6.828;2022-11-13T12:52:02;16.00;99.90
20839;DHT22;10580;51.092;6.828;2022-11-13T12:54:34;15.90;99.90
20839;DHT22;10580;51.092;6.828;2022-11-13T12:57:21;15.70;99.90
20839;DHT22;10580;51.092;6.828;2022-11-13T13:02:38;15.40;99.90
20839;DHT22;10580;51.092;6.828;2022-11-13T13:08:44;15.20;99.90
20839;DHT22;10580;51.092;6.828;2022-11-13T13:11:16;15.20;99.90
20839;DHT22;10580;51.092;6.828;2022-11-13T13:16:31;15.10;99.90
20839;DHT22;10580;51.092;6.828;2022-11-13T13:19:21;15.20;99.90
20839;DHT22;10580;51.092;6.828;2022-11-13T13:21:47;15.40;99.90
20839;DHT22;10580;51.092;6.828;2022-11-13T13:24:34;16.40;99.90
20839;DHT22;10580;51.092;6.828;2022-11-13T13:27:01;17.70;99.90
20839;DHT22;10580;51.092;6.828;2022-11-13T13:29:28;19.10;84.60
20839;DHT22;10580;51.092;6.828;2022-11-13T13:32:24;20.40;1.00
20839;DHT22;10580;51.092;6.828;2022-11-13T13:35:20;21.50;1.00
20839;DHT22;10580;51.092;6.828;2022-11-13T13:46:08;19.40;1.00
20839;DHT22;10580;51.092;6.828;2022-11-13T13:48:38;18.90;1.00
20839;DHT22;10580;51.092;6.828;2022-11-13T13:51:45;18.50;1.00
20839;DHT22;10580;51.092;6.828;2022-11-13T13:54:06;18.80;1.00
20839;DHT22;10580;51.092;6.828;2022-11-13T13:56:33;19.60;1.00
20839;DHT22;10580;51.092;6.828;2022-11-13T13:59:04;20.30;1.00
20839;DHT22;10580;51.092;6.828;2022-11-13T14:01:32;20.80;1.00
20839;DHT22;10580;51.092;6.828;2022-11-13T14:06:49;20.70;1.00
20839;DHT22;10580;51.092;6.828;2022-11-13T14:09:21;20.80;1.00
20839;DHT22;10580;51.092;6.828;2022-11-13T14:11:55;21.00;1.00
20839;DHT22;10580;51.092;6.828;2022-11-13T14:14:22;21.30;1.00
20839;DHT22;10580;51.092;6.828;2022-11-13T14:16:52;21.60;1.00
20839;DHT22;10580;51.092;6.828;2022-11-13T14:19:19;21.90;1.00
20839;DHT22;10580;51.092;6.828;2022-11-13T14:21:51;22.00;1.00
20839;DHT22;10580;51.092;6.828;2022-11-13T14:24:29;22.10;1.00
20839;DHT22;10580;51.092;6.828;2022-11-13T14:27:00;22.10;1.00
20839;DHT22;10580;51.092;6.828;2022-11-13T14:29:36;22.00;1.00
20839;DHT22;10580;51.092;6.828;2022-11-13T14:32:13;21.60;1.00
20839;DHT22;10580;51.092;6.828;2022-11-13T14:34:44;20.70;1.00
20839;DHT22;10580;51.092;6.828;2022-11-13T14:39:49;19.00;1.00
20839;DHT22;10580;51.092;6.828;2022-11-13T14:42:27;18.30;1.00
20839;DHT22;10580;51.092;6.828;2022-11-13T14:45:11;17.70;1.00
20839;DHT22;10580;51.092;6.828;2022-11-13T14:47:37;17.20;1.00
20839;DHT22;10580;51.092;6.828;2022-11-13T14:50:26;16.80;34.00
20839;DHT22;10580;51.092;6.828;2022-11-13T14:53:06;16.40;99.90
20839;DHT22;10580;51.092;6.828;2022-11-13T14:55:52;16.10;99.90
20839;DHT22;10580;51.092;6.828;2022-11-13T14:58:33;15.70;99.90
20839;DHT22;10580;51.092;6.828;2022-11-13T15:01:20;15.50;99.90
20839;DHT22;10580;51.092;6.828;2022-11-13T15:03:47;15.20;99.90
20839;DHT22;10580;51.092;6.828;2022-11-13T15:06:32;15.10;99.90
20839;DHT22;10580;51.092;6.828;2022-11-13T15:08:58;14.90;1.00
20839;DHT22;10580;51.092;6.828;2022-11-13T15:11:25;14.70;1.00
20839;DHT22;10580;51.092;6.828;2022-11-13T15:13:52;14.60;1.00
20839;DHT22;10580;51.092;6.828;2022-11-13T15:16:21;14.50;1.00
20839;DHT22;10580;51.092;6.828;2022-11-13T15:18:51;14.30;1.00
20839;DHT22;10580;51.092;6.828;2022-11-13T15:21:17;14.10;99.90
20839;DHT22;10580;51.092;6.828;2022-11-13T15:23:43;13.90;99.90
20839;DHT22;10580;51.092;6.828;2022-11-13T15:26:12;13.70;1.00
20839;DHT22;10580;51.092;6.828;2022-11-13T15:28:38;13.50;32.90
20839;DHT22;10580;51.092;6.828;2022-11-13T15:31:31;13.40;1.00
20839;DHT22;10580;51.092;6.828;2022-11-13T15:33:57;13.10;1.00
20839;DHT22;10580;51.092;6.828;2022-11-13T15:36:22;13.00;1.00
20839;DHT22;10580;51.092;6.828;2022-11-13T15:38:48;12.80;1.00
20839;DHT22;10580;51.092;6.828;2022-11-13T15:41:16;12.70;1.00
20839;DHT22;10580;51.092;6.828;2022-11-13T15:43:45;12.50;99.90
20839;DHT22;10580;51.092;6.828;2022-11-13T15:46:13;12.30;99.90
20839;DHT22;10580;51.092;6.828;2022-11-13T15:48:40;12.10;1.00
20839;DHT22;10580;51.092;6.828;2022-11-13T15:51:31;12.00;1.00
20839;DHT22;10580;51.092;6.828;2022-11-13T15:53:57;11.90;1.00
20839;DHT22;10580;51.092;6.828;2022-11-13T15:56:24;11.70;1.00
20839;DHT22;10580;51.092;6.828;2022-11-13T15:58:50;11.60;1.00
20839;DHT22;10580;51.092;6.828;2022-11-13T16:01:16;11.40;1.00
20839;DHT22;10580;51.092;6.828;2022-11-13T16:03:42;11.30;1.00
20839;DHT22;10580;51.092;6.828;2022-11-13T16:06:11;11.20;1.00
20839;DHT22;10580;51.092;6.828;2022-11-13T16:08:37;11.00;1.00
20839;DHT22;10580;51.092;6.828;2022-11-13T16:11:03;10.90;1.00
20839;DHT22;10580;51.092;6.828;2022-11-13T16:13:28;10.80;2.80
20839;DHT22;10580;51.092;6.828;2022-11-13T16:15:54;10.70;3.80
20839;DHT22;10580;51.092;6.828;2022-11-13T16:18:22;10.50;6.00
20839;DHT22;10580;51.092;6.828;2022-11-13T16:20:49;10.40;14.10
20839;DHT22;10580;51.092;6.828;2022-11-13T16:23:15;10.30;17.70
20839;DHT22;10580;51.092;6.828;2022-11-13T16:25:45;10.20;23.60
20839;DHT22;10580;51.092;6.828;2022-11-13T16:28:15;10.10;49.10
20839;DHT22;10580;51.092;6.828;2022-11-13T16:30:42;10.00;51.90
20839;DHT22;10580;51.092;6.828;2022-11-13T16:33:11;9.90;45.30
20839;DHT22;10580;51.092;6.828;2022-11-13T16:35:38;9.90;56.60
20839;DHT22;10580;51.092;6.828;2022-11-13T16:38:13;9.80;60.00
20839;DHT22;10580;51.092;6.828;2022-11-13T16:40:39;9.70;60.60
20839;DHT22;10580;51.092;6.828;2022-11-13T16:43:10;9.60;85.30
20839;DHT22;10580;51.092;6.828;2022-11-13T16:45:36;9.50;95.10
20839;DHT22;10580;51.092;6.828;2022-11-13T16:48:08;9.40;96.20
20839;DHT22;10580;51.092;6.828;2022-11-13T16:50:36;9.30;98.70
20839;DHT22;10580;51.092;6.828;2022-11-13T16:53:04;9.30;99.90
20839;DHT22;10580;51.092;6.828;2022-11-13T16:55:30;9.20;99.90
20839;DHT22;10580;51.092;6.828;2022-11-13T16:57:56;9.10;99.90
20839;DHT22;10580;51.092;6.828;2022-11-13T17:00:22;9.00;99.90
20839;DHT22;10580;51.092;6.828;2022-11-13T17:02:50;9.00;99.90
20839;DHT22;10580;51.092;6.828;2022-11-13T17:05:18;8.90;99.90
20839;DHT22;10580;51.092;6.828;2022-11-13T17:07:44;8.80;99.90
20839;DHT22;10580;51.092;6.828;2022-11-13T17:10:15;8.80;99.90
20839;DHT22;10580;51.092;6.828;2022-11-13T17:12:41;8.80;99.90
20839;DHT22;10580;51.092;6.828;2022-11-13T17:15:07;8.80;99.90